createdAt,value
2018-08-29T00:00:06.995Z,1.26
2018-08-29T00:06:01.990Z,1.72
2018-08-29T00:11:57.024Z,1.31
2018-08-29T00:17:52.016Z,1.44
2018-08-29T00:23:46.997Z,1.56
2018-08-29T00:29:42.024Z,1.48
2018-08-29T00:35:37.062Z,1.56
2018-08-29T00:41:32.042Z,1.77
2018-08-29T00:47:27.026Z,1.55
2018-08-29T00:53:22.046Z,1.81
2018-08-29T00:59:17.081Z,1.73
2018-08-29T01:05:12.061Z,1.86
2018-08-29T01:11:07.045Z,1.71
2018-08-29T01:17:02.043Z,1.75
2018-08-29T01:22:57.057Z,1.85
2018-08-29T01:28:52.074Z,1.88
2018-08-29T01:34:47.077Z,1.83
2018-08-29T01:40:42.082Z,1.94
2018-08-29T01:46:37.124Z,1.53
2018-08-29T01:52:32.068Z,1.55
2018-08-29T01:58:27.083Z,1.61
2018-08-29T02:04:22.170Z,1.61
2018-08-29T02:10:17.092Z,1.65
2018-08-29T02:16:12.108Z,1.8
2018-08-29T02:22:07.103Z,1.39
2018-08-29T02:28:02.114Z,1.62
2018-08-29T02:33:57.121Z,1.78
2018-08-29T02:39:52.110Z,1.2
2018-08-29T02:45:47.141Z,1.56
2018-08-29T02:51:42.132Z,1.43
2018-08-29T02:57:37.120Z,1.47
2018-08-29T03:03:32.164Z,1.49
2018-08-29T03:09:27.130Z,1.42
2018-08-29T03:15:22.135Z,1.73
2018-08-29T03:21:17.153Z,1.41
2018-08-29T03:27:12.153Z,1.61
2018-08-29T03:33:07.184Z,1.52
2018-08-29T03:39:02.156Z,1.59
2018-08-29T03:44:57.154Z,1.68
2018-08-29T03:50:52.161Z,2.1
2018-08-29T03:56:47.185Z,2.04
2018-08-29T04:02:42.171Z,1.73
2018-08-29T04:08:37.172Z,2.2
2018-08-29T04:14:32.188Z,1.86
2018-08-29T04:20:27.224Z,2.13
2018-08-29T04:26:22.189Z,2.24
2018-08-29T04:32:17.274Z,2.02
2018-08-29T04:38:12.240Z,1.89
2018-08-29T04:44:07.242Z,1.99
2018-08-29T04:50:02.256Z,1.87
2018-08-29T04:55:57.250Z,1.94
2018-08-29T05:01:52.224Z,2.14
2018-08-29T05:07:47.272Z,2.14
2018-08-29T05:13:42.251Z,2.12
2018-08-29T05:19:37.249Z,2.03
2018-08-29T05:25:32.244Z,1.74
2018-08-29T05:31:27.277Z,2.08
2018-08-29T05:37:22.236Z,2.34
2018-08-29T05:43:17.243Z,2.85
2018-08-29T05:49:12.259Z,2.07
2018-08-29T05:55:07.264Z,2.14
2018-08-29T06:01:02.272Z,1.85
2018-08-29T06:06:57.274Z,2.25
2018-08-29T06:12:52.290Z,2.26
2018-08-29T06:18:47.323Z,2.08
2018-08-29T06:24:42.306Z,2.81
2018-08-29T06:30:37.313Z,2.7
2018-08-29T06:36:32.313Z,2.83
2018-08-29T06:42:27.308Z,2.6
2018-08-29T06:48:22.295Z,2.98
2018-08-29T06:54:17.301Z,3.54
2018-08-29T07:00:12.303Z,3.76
2018-08-29T07:06:07.340Z,3.3
2018-08-29T07:12:02.589Z,8.82
2018-08-29T07:17:57.323Z,17.15
2018-08-29T07:23:52.341Z,16.04
2018-08-29T07:29:47.354Z,11.32
2018-08-29T07:35:42.411Z,9.63
2018-08-29T07:41:37.375Z,5.67
2018-08-29T07:47:32.341Z,5.18
2018-08-29T07:53:27.365Z,5
2018-08-29T07:59:22.351Z,4.03
2018-08-29T08:05:17.361Z,3.69
2018-08-29T08:11:12.356Z,3.42
2018-08-29T08:17:07.391Z,2.62
2018-08-29T08:23:02.371Z,2.98
2018-08-29T08:28:57.377Z,2.94
2018-08-29T08:34:52.494Z,2.95
2018-08-29T08:40:47.428Z,3.81
2018-08-29T08:46:44.083Z,3.57
2018-08-29T08:52:37.369Z,3.08
2018-08-29T08:58:32.440Z,2.88
2018-08-29T09:04:27.441Z,2.94
2018-08-29T09:10:22.444Z,2.97
2018-08-29T09:16:17.454Z,4.41
2018-08-29T09:22:12.414Z,3.05
2018-08-29T09:28:07.418Z,2.86
2018-08-29T09:34:02.426Z,3.06
2018-08-29T09:39:57.421Z,2.76
2018-08-29T09:45:52.431Z,2.06
2018-08-29T09:51:47.481Z,2.44
2018-08-29T09:57:42.478Z,2.24
2018-08-29T10:03:37.498Z,1.47
2018-08-29T10:09:32.480Z,1.61
2018-08-29T10:15:27.469Z,1.5
2018-08-29T10:21:22.474Z,1.91
2018-08-29T10:27:17.503Z,1.47
2018-08-29T10:33:12.489Z,1.85
2018-08-29T10:39:07.469Z,1.65
2018-08-29T10:45:02.503Z,2.15
2018-08-29T10:50:57.521Z,2.58
2018-08-29T10:56:52.530Z,2.46
2018-08-29T11:02:47.500Z,2.11
2018-08-29T11:08:42.601Z,2.21
2018-08-29T11:14:37.549Z,2.5
2018-08-29T11:20:32.553Z,1.98
2018-08-29T11:26:27.533Z,1.73
2018-08-29T11:32:22.577Z,2.21
2018-08-29T11:38:17.540Z,2.12
2018-08-29T11:44:12.557Z,2.14
2018-08-29T11:50:07.576Z,2.32
2018-08-29T11:56:02.550Z,1.83
2018-08-29T12:01:57.563Z,2
2018-08-29T12:07:52.590Z,1.7
2018-08-29T12:13:47.578Z,1.54
2018-08-29T12:19:42.613Z,1.52
2018-08-29T12:25:37.578Z,1.39
2018-08-29T12:31:32.603Z,1.25
2018-08-29T12:37:27.715Z,1.68
2018-08-29T12:43:22.675Z,1.27
2018-08-29T12:49:17.623Z,1.37
2018-08-29T12:55:12.672Z,1.16
2018-08-29T13:01:07.615Z,1.22
2018-08-29T13:07:02.697Z,1.06
2018-08-29T13:12:57.637Z,1.1
2018-08-29T13:18:52.664Z,1.23
2018-08-29T13:24:47.643Z,0.96
2018-08-29T13:30:42.650Z,1.3
2018-08-29T13:36:37.638Z,1.36
2018-08-29T13:42:32.649Z,1.52
2018-08-29T13:48:27.661Z,1.45
2018-08-29T13:54:22.707Z,1.27
2018-08-29T14:00:17.675Z,1.32
2018-08-29T14:06:12.689Z,1.7
2018-08-29T14:12:07.705Z,1.61
2018-08-29T14:18:02.717Z,1.63
2018-08-29T14:23:57.744Z,1.68
2018-08-29T14:29:52.769Z,1.57
2018-08-29T14:35:47.720Z,1.53
2018-08-29T14:41:42.689Z,1.79
2018-08-29T14:47:37.895Z,1.52
2018-08-29T14:53:32.748Z,1.59
2018-08-29T14:59:27.743Z,1.71
2018-08-29T15:05:22.801Z,1.4
2018-08-29T15:11:17.722Z,1.62
2018-08-29T15:17:12.731Z,1.49
2018-08-29T15:23:07.754Z,1.53
2018-08-29T15:29:02.831Z,1.7
2018-08-29T15:34:57.757Z,1.73
2018-08-29T15:40:52.791Z,1.49
2018-08-29T15:46:47.759Z,1.79
2018-08-29T15:52:42.782Z,1.8
2018-08-29T15:58:37.775Z,1.64
2018-08-29T16:04:32.801Z,1.58
2018-08-29T16:10:27.804Z,1.71
2018-08-29T16:16:22.804Z,1.3
2018-08-29T16:22:17.807Z,1.37
2018-08-29T16:28:12.852Z,1.44
2018-08-29T16:34:07.829Z,1.1
2018-08-29T16:40:02.790Z,1.17
2018-08-29T16:45:57.877Z,1.29
2018-08-29T16:51:52.820Z,1.15
2018-08-29T16:57:47.835Z,1.19
2018-08-29T17:03:42.841Z,1.08
2018-08-29T17:09:37.900Z,1.09
2018-08-29T17:15:32.862Z,1.29
2018-08-29T17:21:27.888Z,1.05
2018-08-29T17:27:22.856Z,1.16
2018-08-29T17:33:17.875Z,1.29
2018-08-29T17:39:12.868Z,1.57
2018-08-29T17:45:07.891Z,1.63
2018-08-29T17:51:02.885Z,1.45
2018-08-29T17:56:57.894Z,1.79
2018-08-29T18:02:52.931Z,2.55
2018-08-29T18:08:47.892Z,1.79
2018-08-29T18:14:42.893Z,2.38
2018-08-29T18:20:37.923Z,1.79
2018-08-29T18:26:32.930Z,1.81
2018-08-29T18:32:27.937Z,1.54
2018-08-29T18:38:22.957Z,1.67
2018-08-29T18:44:17.928Z,1.74
2018-08-29T18:50:12.946Z,1.74
2018-08-29T18:56:07.951Z,6.44
2018-08-29T19:02:02.955Z,1.75
2018-08-29T19:07:57.948Z,1.6
2018-08-29T19:13:52.983Z,2.08
2018-08-29T19:19:47.980Z,1.94
2018-08-29T19:25:42.965Z,2.3
2018-08-29T19:31:38.007Z,2.84
2018-08-29T19:37:32.979Z,2.8
2018-08-29T19:43:27.971Z,2.25
2018-08-29T19:49:22.982Z,2.24
2018-08-29T19:55:17.979Z,2.9
2018-08-29T20:01:12.999Z,3.16
2018-08-29T20:07:07.984Z,2.17
2018-08-29T20:13:03.015Z,9.41
2018-08-29T20:18:58.007Z,2.53
2018-08-29T20:24:53.030Z,2.98
2018-08-29T20:30:48.021Z,3.22
2018-08-29T20:36:43.016Z,3.24
2018-08-29T20:42:38.041Z,2.86
2018-08-29T20:48:33.144Z,3.15
2018-08-29T20:54:28.026Z,2.86
2018-08-29T21:00:23.074Z,2.77
2018-08-29T21:06:18.058Z,2.94
2018-08-29T21:12:13.033Z,2.91
2018-08-29T21:18:08.086Z,2.9
2018-08-29T21:24:03.053Z,2.98
2018-08-29T21:29:58.131Z,3.09
2018-08-29T21:35:53.099Z,2.84
2018-08-29T21:41:48.093Z,2.48
2018-08-29T21:47:43.075Z,3.02
2018-08-29T21:53:38.116Z,3.07
2018-08-29T21:59:33.087Z,3.46
2018-08-29T22:05:28.094Z,3.13
2018-08-29T22:11:23.157Z,3.28
2018-08-29T22:17:18.108Z,3.24
2018-08-29T22:23:13.141Z,3.44
2018-08-29T22:29:08.110Z,3.3
2018-08-29T22:35:03.129Z,3.07
2018-08-29T22:40:58.139Z,3.17
2018-08-29T22:46:53.116Z,3.56
2018-08-29T22:52:48.119Z,3.93
2018-08-29T22:58:43.140Z,3.43
2018-08-29T23:04:38.149Z,4.34
2018-08-29T23:10:33.145Z,3.42
2018-08-29T23:16:28.142Z,3.42
2018-08-29T23:22:23.164Z,3.52
2018-08-29T23:28:18.153Z,3.48
2018-08-29T23:34:13.164Z,3.5
2018-08-29T23:40:08.177Z,3.98
2018-08-29T23:46:03.152Z,3.87
2018-08-29T23:51:58.185Z,3.74
2018-08-29T23:57:53.186Z,3.73
